createdAt,value
2023-03-13T00:07:03.445Z,15.00
2023-03-13T00:22:04.015Z,16.70
2023-03-13T00:37:03.680Z,18.80
2023-03-13T00:52:03.775Z,19.60
2023-03-13T01:07:03.850Z,14.50
2023-03-13T01:22:03.980Z,17.80
2023-03-13T01:37:04.985Z,19.90
2023-03-13T01:52:05.087Z,22.80
2023-03-13T02:07:04.743Z,13.80
2023-03-13T02:22:04.850Z,18.30
2023-03-13T02:37:04.968Z,16.40
2023-03-13T02:52:05.069Z,14.30
2023-03-13T03:07:05.619Z,12.90
2023-03-13T03:22:06.184Z,18.80
2023-03-13T03:37:06.211Z,22.80
2023-03-13T03:52:06.363Z,13.00
2023-03-13T04:07:06.039Z,16.80
2023-03-13T04:22:06.685Z,16.90
2023-03-13T04:37:06.753Z,20.60
2023-03-13T04:52:07.220Z,16.60
2023-03-13T05:07:07.313Z,7.90
2023-03-13T05:22:06.988Z,15.20
2023-03-13T05:37:07.470Z,19.50
2023-03-13T05:52:07.173Z,24.20
2023-03-13T06:07:07.716Z,21.20
2023-03-13T06:22:07.836Z,15.90
2023-03-13T06:37:07.966Z,33.30
2023-03-13T06:52:08.447Z,29.00
2023-03-13T07:07:08.514Z,17.50
2023-03-13T07:22:08.196Z,15.60
2023-03-13T07:37:08.664Z,27.10
2023-03-13T07:52:08.380Z,20.20
2023-03-13T08:07:09.167Z,21.50
2023-03-13T08:22:09.575Z,14.90
2023-03-13T08:37:10.085Z,9.30
2023-03-13T08:52:09.743Z,19.60
2023-03-13T09:07:11.143Z,24.50
2023-03-13T09:22:11.628Z,21.00
2023-03-13T09:37:11.282Z,8.20
2023-03-13T09:52:11.798Z,17.70
2023-03-13T10:07:11.426Z,9.40
2023-03-13T10:22:11.575Z,10.40
2023-03-13T10:37:12.032Z,14.00
2023-03-13T10:52:11.846Z,6.60
2023-03-13T11:07:11.827Z,3.20
2023-03-13T11:22:11.981Z,3.50
2023-03-13T11:37:11.992Z,2.70
2023-03-13T11:52:12.594Z,4.80
2023-03-13T12:07:13.567Z,1.70
2023-03-13T12:22:13.759Z,2.60
2023-03-13T12:37:14.842Z,1.60
2023-03-13T12:52:14.951Z,1.40
2023-03-13T13:07:14.997Z,3.50
2023-03-13T13:22:15.155Z,1.50
2023-03-13T13:37:15.164Z,6.70
2023-03-13T13:52:15.264Z,1.10
2023-03-13T14:07:15.339Z,1.00
2023-03-13T14:22:15.448Z,1.60
2023-03-13T14:37:18.336Z,2.00
2023-03-13T14:52:19.142Z,3.20
2023-03-13T15:07:19.693Z,2.80
2023-03-13T15:22:19.881Z,1.40
2023-03-13T15:37:20.874Z,1.20
2023-03-13T15:52:20.953Z,1.30
2023-03-13T16:07:21.531Z,1.20
2023-03-13T16:22:21.756Z,3.00
2023-03-13T16:37:22.203Z,5.90
2023-03-13T16:52:22.698Z,3.40
2023-03-13T17:07:23.382Z,1.90
2023-03-13T17:22:23.969Z,3.30
2023-03-13T17:37:25.805Z,1.60
2023-03-13T17:52:26.612Z,1.30
2023-03-13T18:07:26.774Z,1.80
2023-03-13T18:22:27.319Z,2.10
2023-03-13T18:37:27.375Z,2.20
2023-03-13T18:52:27.474Z,1.80
2023-03-13T19:07:27.551Z,2.10
2023-03-13T19:22:28.543Z,1.40
2023-03-13T19:37:28.191Z,2.90
2023-03-13T19:52:28.299Z,2.40
2023-03-13T20:07:28.441Z,1.20
2023-03-13T20:22:28.604Z,1.90
2023-03-13T20:37:28.682Z,1.70
2023-03-13T20:52:29.203Z,2.00
2023-03-13T21:07:29.741Z,2.00
2023-03-13T21:22:29.485Z,6.90
2023-03-13T21:37:29.945Z,4.40
2023-03-13T21:52:29.631Z,5.60
2023-03-13T22:07:30.127Z,2.40
2023-03-13T22:22:30.191Z,2.40
2023-03-13T22:37:30.292Z,4.80
2023-03-13T22:52:29.977Z,2.30
2023-03-13T23:07:30.062Z,2.40
2023-03-13T23:22:30.612Z,2.30
2023-03-13T23:37:30.658Z,3.10
2023-03-13T23:52:30.364Z,2.50
